Time;durP1;ratioP1;P1;durP2;ratioP2;P2;SDS_P1;SDS_P2;PMS_P1;PMS_P2;Temp;Humidity;BMP_temperature;BMP_pressure;BME280_temperature;BME280_humidity;BME280_pressure;Samples;Min_cycle;Max_cycle;Signal;HPM_P1;HPM_P2
2022/06/23 00:01:19;;;;;;;0.10;0.10;;;19.50;99.90;;;;;;4304730;33;20344;-68
2022/06/23 00:03:48;;;;;;;0.40;0.40;;;19.50;99.90;;;;;;4301352;33;20080;-68
2022/06/23 00:06:46;;;;;;;0.32;0.32;;;19.40;99.90;;;;;;4302818;33;20069;-69
2022/06/23 00:09:38;;;;;;;0.52;0.40;;;19.50;99.90;;;;;;4301385;33;20099;-69
2022/06/23 00:12:23;;;;;;;1.60;0.35;;;19.40;99.90;;;;;;4304847;33;20056;-68
2022/06/23 00:14:52;;;;;;;0.32;0.32;;;19.40;99.90;;;;;;4304827;33;20149;-69
2022/06/23 00:17:24;;;;;;;0.20;0.20;;;19.50;99.90;;;;;;4302598;33;20069;-69
2022/06/23 00:19:50;;;;;;;1.37;0.82;;;19.50;99.90;;;;;;4304467;33;20071;-69
2022/06/23 00:22:20;;;;;;;0.55;0.30;;;19.60;99.90;;;;;;4284406;33;20104;-68
2022/06/23 00:24:48;;;;;;;0.30;0.30;;;19.60;99.90;;;;;;4284706;33;20085;-69
2022/06/23 00:27:16;;;;;;;5.45;0.50;;;19.50;99.90;;;;;;4304458;33;20092;-69
2022/06/23 00:29:44;;;;;;;0.35;0.35;;;19.50;99.90;;;;;;4304331;33;20084;-69
2022/06/23 00:32:12;;;;;;;0.98;0.30;;;19.40;99.90;;;;;;4301474;33;20526;-69
2022/06/23 00:34:40;;;;;;;0.57;0.37;;;19.40;99.90;;;;;;4305765;33;20584;-69
2022/06/23 00:37:12;;;;;;;0.35;0.35;;;19.40;99.90;;;;;;4303259;33;20057;-68
2022/06/23 00:39:52;;;;;;;0.45;0.45;;;19.40;99.90;;;;;;4305539;33;20076;-69
2022/06/23 00:42:27;;;;;;;0.45;0.45;;;19.30;99.90;;;;;;4302087;33;20490;-69
2022/06/23 00:45:19;;;;;;;0.30;0.30;;;19.20;99.90;;;;;;4303410;33;20135;-69
2022/06/23 00:47:52;;;;;;;0.30;0.30;;;19.10;99.90;;;;;;4302509;33;20141;-69
2022/06/23 00:50:39;;;;;;;1.27;0.88;;;19.10;99.90;;;;;;4300715;33;20076;-69
2022/06/23 00:53:15;;;;;;;0.30;0.30;;;19.00;99.90;;;;;;4282184;33;20072;-69
2022/06/23 00:56:16;;;;;;;0.30;0.30;;;19.00;99.90;;;;;;4293301;33;20629;-68
2022/06/23 00:58:58;;;;;;;1.20;0.47;;;19.10;99.90;;;;;;4304098;33;20084;-68
2022/06/23 01:01:43;;;;;;;0.30;0.30;;;19.00;99.90;;;;;;4303545;33;20073;-69
2022/06/23 01:04:45;;;;;;;0.30;0.30;;;19.20;99.90;;;;;;4302301;33;20427;-68
2022/06/23 01:07:50;;;;;;;1.40;0.82;;;19.10;99.90;;;;;;4303199;33;20099;-69
2022/06/23 01:10:22;;;;;;;0.85;0.50;;;19.00;99.90;;;;;;4302814;33;20060;-69
2022/06/23 01:12:58;;;;;;;1.67;0.60;;;19.00;99.90;;;;;;4302180;33;20092;-69
2022/06/23 01:15:45;;;;;;;0.50;0.50;;;19.00;99.90;;;;;;4303488;33;20060;-69
2022/06/23 01:18:20;;;;;;;0.20;0.20;;;19.00;99.90;;;;;;4303913;33;20083;-69
2022/06/23 01:20:51;;;;;;;0.43;0.43;;;19.00;99.90;;;;;;4298032;33;20560;-69
2022/06/23 01:23:47;;;;;;;0.50;0.50;;;18.90;99.90;;;;;;4280509;33;20076;-68
2022/06/23 01:26:25;;;;;;;0.30;0.30;;;18.80;99.90;;;;;;4298678;33;20089;-69
2022/06/23 01:29:00;;;;;;;0.30;0.30;;;18.90;99.90;;;;;;4303436;33;20103;-69
2022/06/23 01:31:42;;;;;;;0.40;0.40;;;18.90;99.90;;;;;;4300245;33;82458;-69
2022/06/23 01:34:16;;;;;;;0.98;0.75;;;18.80;99.90;;;;;;4302420;33;20092;-68
2022/06/23 01:36:48;;;;;;;0.47;0.37;;;18.80;99.90;;;;;;4301808;33;20170;-69
2022/06/23 01:39:36;;;;;;;0.40;0.40;;;18.70;99.90;;;;;;4300190;33;20200;-69
2022/06/23 01:42:28;;;;;;;0.57;0.57;;;18.60;99.90;;;;;;4300409;33;20799;-69
2022/06/23 01:45:02;;;;;;;0.32;0.32;;;18.50;99.90;;;;;;4300434;33;20115;-69
2022/06/23 01:47:50;;;;;;;0.45;0.43;;;18.50;99.90;;;;;;4301702;33;20164;-69
2022/06/23 01:50:29;;;;;;;0.52;0.40;;;18.50;99.90;;;;;;4301486;33;20737;-69
2022/06/23 01:53:12;;;;;;;0.50;0.50;;;18.50;99.90;;;;;;4278148;33;20116;-69
2022/06/23 01:56:17;;;;;;;0.28;0.28;;;18.50;99.90;;;;;;4290714;33;20065;-69
2022/06/23 01:59:10;;;;;;;0.30;0.30;;;18.40;99.90;;;;;;4301564;33;20112;-69
2022/06/23 02:01:43;;;;;;;0.30;0.30;;;18.40;99.90;;;;;;4299452;33;20429;-69
2022/06/23 02:04:26;;;;;;;0.25;0.25;;;18.30;99.90;;;;;;4303723;33;20085;-69
2022/06/23 02:06:57;;;;;;;0.40;0.40;;;18.30;99.90;;;;;;4303976;33;20443;-69
2022/06/23 02:09:31;;;;;;;0.30;0.30;;;18.30;99.90;;;;;;4303997;33;20060;-68
2022/06/23 02:11:57;;;;;;;1.35;0.60;;;18.20;99.90;;;;;;4302739;33;20937;-69
2022/06/23 02:14:42;;;;;;;0.45;0.40;;;18.20;99.90;;;;;;4302148;33;20083;-69
2022/06/23 02:17:26;;;;;;;0.32;0.32;;;18.20;99.90;;;;;;4301622;33;20123;-69
2022/06/23 02:19:55;;;;;;;0.37;0.30;;;18.00;99.90;;;;;;4303669;33;20064;-69
2022/06/23 02:22:31;;;;;;;0.52;0.52;;;18.00;99.90;;;;;;4281656;33;20072;-69
2022/06/23 02:25:08;;;;;;;0.30;0.30;;;17.90;99.90;;;;;;4285581;33;20416;-69
2022/06/23 02:27:56;;;;;;;0.43;0.43;;;17.90;99.90;;;;;;4302165;33;20659;-69
2022/06/23 02:30:31;;;;;;;0.62;0.35;;;18.00;99.90;;;;;;4301962;33;20104;-69
2022/06/23 02:33:18;;;;;;;0.43;0.43;;;17.90;99.90;;;;;;4301823;33;20064;-69
2022/06/23 02:35:58;;;;;;;0.40;0.40;;;17.80;99.90;;;;;;4301604;33;20150;-69
2022/06/23 02:38:31;;;;;;;1.50;0.50;;;17.80;99.90;;;;;;4304632;33;20083;-68
2022/06/23 02:41:08;;;;;;;0.65;0.62;;;17.80;99.90;;;;;;4304833;33;20091;-68
2022/06/23 02:43:41;;;;;;;1.90;0.37;;;17.80;99.90;;;;;;4304295;33;20091;-69
2022/06/23 02:46:46;;;;;;;0.30;0.30;;;17.80;99.90;;;;;;4300753;33;20064;-69
2022/06/23 02:49:22;;;;;;;0.30;0.30;;;17.70;99.90;;;;;;4305020;33;20112;-69
2022/06/23 02:52:17;;;;;;;1.85;0.88;;;17.80;99.90;;;;;;4290362;33;20453;-68
2022/06/23 02:55:17;;;;;;;0.32;0.32;;;17.80;99.90;;;;;;4284255;33;20132;-69
2022/06/23 02:57:49;;;;;;;0.30;0.30;;;17.70;99.90;;;;;;4303589;33;20146;-69
2022/06/23 03:00:22;;;;;;;0.40;0.40;;;17.70;99.90;;;;;;4307639;33;20079;-69
2022/06/23 03:02:58;;;;;;;0.95;0.85;;;17.70;99.90;;;;;;4305489;33;20064;-69
2022/06/23 03:05:40;;;;;;;0.30;0.30;;;17.70;99.90;;;;;;4303781;33;20157;-68
2022/06/23 03:08:11;;;;;;;0.62;0.62;;;17.60;99.90;;;;;;4306086;33;20087;-68
2022/06/23 03:10:45;;;;;;;0.75;0.40;;;17.60;99.90;;;;;;4305471;33;20080;-69
2022/06/23 03:13:29;;;;;;;0.50;0.50;;;17.60;99.90;;;;;;4306332;33;20516;-69
2022/06/23 03:16:05;;;;;;;0.43;0.32;;;17.50;99.90;;;;;;4306297;33;20482;-69
2022/06/23 03:18:45;;;;;;;0.28;0.28;;;17.50;99.90;;;;;;4303998;33;20083;-69
2022/06/23 03:21:19;;;;;;;0.30;0.30;;;17.60;99.90;;;;;;4297630;33;20133;-68
2022/06/23 03:23:51;;;;;;;0.25;0.25;;;17.60;99.90;;;;;;4279606;33;20695;-69
2022/06/23 03:26:47;;;;;;;1.85;0.40;;;17.60;99.90;;;;;;4300549;33;20087;-69
2022/06/23 03:29:37;;;;;;;1.87;1.00;;;17.50;99.90;;;;;;4304581;33;20099;-69
2022/06/23 03:32:22;;;;;;;0.40;0.40;;;17.50;99.90;;;;;;4302786;33;20423;-69
2022/06/23 03:35:13;;;;;;;0.75;0.50;;;17.60;99.90;;;;;;4304943;33;20095;-69
2022/06/23 03:38:03;;;;;;;0.30;0.30;;;17.60;99.90;;;;;;4305186;33;20096;-68
2022/06/23 03:41:52;;;;;;;0.28;0.28;;;17.60;99.90;;;;;;4302607;33;20122;-69
2022/06/23 03:43:46;;;;;;;4.37;0.70;;;17.60;99.90;;;;;;4303392;33;20090;-69
2022/06/23 03:46:49;;;;;;;0.25;0.25;;;17.60;99.90;;;;;;4303400;33;20569;-69
2022/06/23 03:49:43;;;;;;;0.30;0.30;;;17.60;99.90;;;;;;4303308;33;20079;-67
2022/06/23 03:52:27;;;;;;;0.30;0.30;;;17.50;99.90;;;;;;4288283;33;20115;-67
2022/06/23 03:55:17;;;;;;;0.20;0.20;;;17.50;99.90;;;;;;4286143;33;20087;-67
2022/06/23 03:57:53;;;;;;;0.30;0.30;;;17.50;99.90;;;;;;4304718;33;20568;-67
2022/06/23 04:00:37;;;;;;;0.25;0.25;;;17.60;99.90;;;;;;4305499;33;20541;-67
2022/06/23 04:03:18;;;;;;;0.50;0.50;;;17.60;99.90;;;;;;4305536;33;20092;-67
2022/06/23 04:06:23;;;;;;;0.68;0.68;;;17.60;99.90;;;;;;4305460;33;20103;-67
2022/06/23 04:08:56;;;;;;;0.90;0.65;;;17.80;99.90;;;;;;4303186;33;20088;-66
2022/06/23 04:11:58;;;;;;;0.30;0.30;;;17.80;99.90;;;;;;4304918;33;20454;-66
2022/06/23 04:14:21;;;;;;;0.85;0.68;;;17.80;99.90;;;;;;4305010;33;20084;-66
2022/06/23 04:16:53;;;;;;;0.35;0.35;;;17.80;99.90;;;;;;4303725;33;20128;-66
2022/06/23 04:19:25;;;;;;;0.55;0.55;;;17.90;99.90;;;;;;4305442;33;20068;-66
2022/06/23 04:21:57;;;;;;;0.20;0.20;;;18.00;99.90;;;;;;4277633;33;20525;-66
2022/06/23 04:24:25;;;;;;;0.47;0.47;;;18.00;99.90;;;;;;4244264;33;20522;-66
2022/06/23 04:26:57;;;;;;;0.20;0.20;;;18.00;99.90;;;;;;4263850;33;20182;-66
2022/06/23 04:29:30;;;;;;;0.50;0.50;;;18.10;99.90;;;;;;4261433;33;20173;-66
2022/06/23 04:32:04;;;;;;;0.47;0.37;;;18.10;99.90;;;;;;4261595;33;21007;-67
2022/06/23 04:34:34;;;;;;;0.37;0.37;;;18.00;99.90;;;;;;4268134;33;20152;-67
2022/06/23 04:37:00;;;;;;;0.20;0.20;;;18.00;99.90;;;;;;4303480;33;20131;-67
2022/06/23 04:39:40;;;;;;;0.30;0.30;;;18.10;99.90;;;;;;4300344;33;20108;-68
2022/06/23 04:42:10;;;;;;;0.20;0.20;;;18.10;99.90;;;;;;4300271;33;20117;-67
2022/06/23 04:44:43;;;;;;;0.60;0.50;;;18.20;99.90;;;;;;4303363;33;20254;-67
2022/06/23 04:47:17;;;;;;;0.50;0.50;;;18.30;99.90;;;;;;4301413;33;20525;-67
2022/06/23 04:49:49;;;;;;;0.40;0.40;;;18.30;99.90;;;;;;4304197;33;20850;-67
2022/06/23 04:52:27;;;;;;;0.77;0.77;;;18.40;99.90;;;;;;4273389;33;20505;-67
2022/06/23 04:55:07;;;;;;;0.30;0.30;;;18.50;99.90;;;;;;4245758;33;20112;-67
2022/06/23 04:57:40;;;;;;;0.30;0.30;;;18.60;99.90;;;;;;4292599;33;20120;-67
2022/06/23 05:00:18;;;;;;;0.20;0.20;;;18.70;99.90;;;;;;4297332;33;20108;-67
2022/06/23 05:02:58;;;;;;;0.30;0.30;;;18.80;99.90;;;;;;4284744;33;21021;-67
2022/06/23 05:05:30;;;;;;;0.45;0.40;;;18.90;99.90;;;;;;4265325;33;20117;-67
2022/06/23 05:08:05;;;;;;;0.30;0.30;;;19.00;99.90;;;;;;4264209;33;20069;-67
2022/06/23 05:10:37;;;;;;;0.28;0.28;;;19.00;99.90;;;;;;4256902;33;20368;-67
2022/06/23 05:13:09;;;;;;;0.20;0.20;;;19.00;99.90;;;;;;4253050;33;20425;-67
2022/06/23 05:15:43;;;;;;;0.73;0.73;;;19.00;99.90;;;;;;4256428;33;20088;-67
2022/06/23 05:18:17;;;;;;;0.20;0.20;;;19.00;99.90;;;;;;4237743;33;20382;-67
2022/06/23 05:20:55;;;;;;;0.40;0.40;;;19.10;99.90;;;;;;4217181;33;20079;-67
2022/06/23 05:23:26;;;;;;;0.55;0.30;;;19.20;99.90;;;;;;4186196;33;20238;-67
2022/06/23 05:25:55;;;;;;;0.20;0.20;;;19.30;99.90;;;;;;4200910;33;20789;-67
2022/06/23 05:28:28;;;;;;;0.50;0.40;;;19.30;99.90;;;;;;4213401;33;20344;-67
2022/06/23 05:30:59;;;;;;;0.30;0.30;;;19.30;99.90;;;;;;4197936;33;20518;-67
2022/06/23 05:33:31;;;;;;;0.85;0.43;;;19.40;99.90;;;;;;4221570;33;20434;-67
2022/06/23 05:36:05;;;;;;;0.28;0.28;;;19.50;99.90;;;;;;4227048;33;20082;-68
2022/06/23 05:38:37;;;;;;;0.30;0.30;;;19.60;99.90;;;;;;4227597;33;20400;-68
2022/06/23 05:41:16;;;;;;;0.28;0.28;;;19.60;99.90;;;;;;4241852;33;20614;-67
2022/06/23 05:43:42;;;;;;;0.30;0.30;;;19.80;99.90;;;;;;4249024;33;20127;-67
2022/06/23 05:46:20;;;;;;;3.15;0.82;;;19.90;99.90;;;;;;4261972;33;20079;-67
2022/06/23 05:48:55;;;;;;;0.98;0.40;;;19.90;99.90;;;;;;4270138;33;20172;-67
2022/06/23 05:51:29;;;;;;;0.30;0.30;;;19.90;99.90;;;;;;4266650;33;20238;-67
2022/06/23 05:54:07;;;;;;;0.32;0.32;;;20.00;99.90;;;;;;4270242;33;20084;-67
2022/06/23 05:56:56;;;;;;;0.65;0.65;;;20.10;99.90;;;;;;4282587;33;20144;-68
2022/06/23 05:59:29;;;;;;;0.55;0.55;;;20.20;99.90;;;;;;4279281;33;20089;-67
2022/06/23 06:02:02;;;;;;;0.57;0.57;;;20.30;99.90;;;;;;4275011;33;20100;-67
2022/06/23 06:04:31;;;;;;;0.85;0.85;;;20.40;99.90;;;;;;4252954;33;20434;-67
2022/06/23 06:06:58;;;;;;;0.80;0.80;;;20.40;99.90;;;;;;4269119;33;20261;-67
2022/06/23 06:09:47;;;;;;;0.20;0.20;;;20.50;99.90;;;;;;4286149;33;20161;-67
2022/06/23 06:12:18;;;;;;;0.40;0.40;;;20.40;99.90;;;;;;4288475;33;20426;-67
2022/06/23 06:14:46;;;;;;;;;;;20.50;99.90;;;;;;4292627;33;20476;-67
2022/06/23 06:17:19;;;;;;;0.43;0.43;;;20.50;99.90;;;;;;4290562;33;19966;-67
2022/06/23 06:19:46;;;;;;;0.30;0.30;;;20.60;99.90;;;;;;4266541;33;20087;-67
2022/06/23 06:22:26;;;;;;;0.45;0.45;;;20.70;99.90;;;;;;4265311;33;20105;-67
2022/06/23 06:24:55;;;;;;;0.50;0.50;;;20.80;99.90;;;;;;4277574;33;20592;-67
2022/06/23 06:27:21;;;;;;;1.42;0.82;;;20.80;99.90;;;;;;4285218;33;20537;-67
2022/06/23 06:29:49;;;;;;;0.22;0.20;;;20.90;99.90;;;;;;4270662;33;20437;-67
2022/06/23 06:32:33;;;;;;;2.55;0.65;;;21.00;99.90;;;;;;4262520;33;20418;-66
2022/06/23 06:35:26;;;;;;;0.70;0.52;;;21.10;99.60;;;;;;4248069;33;20165;-67
2022/06/23 06:37:58;;;;;;;0.20;0.20;;;21.20;99.90;;;;;;4264829;33;20341;-67
2022/06/23 06:40:25;;;;;;;0.35;0.30;;;21.20;99.90;;;;;;4279518;33;20092;-67
2022/06/23 06:42:54;;;;;;;0.77;0.50;;;21.30;99.60;;;;;;4284513;33;20115;-67
2022/06/23 06:45:24;;;;;;;0.30;0.30;;;21.40;99.30;;;;;;4284967;33;20109;-67
2022/06/23 06:47:50;;;;;;;1.50;0.90;;;21.40;99.30;;;;;;4280082;33;20113;-67
2022/06/23 06:50:22;;;;;;;4.30;0.73;;;21.40;99.50;;;;;;4255154;33;20488;-67
2022/06/23 06:52:49;;;;;;;0.62;0.62;;;21.50;98.60;;;;;;4257171;33;20461;-67
2022/06/23 06:55:38;;;;;;;0.40;0.35;;;21.60;98.60;;;;;;4280563;33;20124;-67
2022/06/23 06:58:15;;;;;;;0.32;0.30;;;21.70;98.60;;;;;;4286198;33;20670;-66
2022/06/23 07:00:48;;;;;;;0.40;0.40;;;21.80;97.60;;;;;;4270245;33;20116;-66
2022/06/23 07:03:18;;;;;;;0.30;0.30;;;21.80;97.90;;;;;;4253333;33;20459;-66
2022/06/23 07:05:53;;;;;;;6.22;1.45;;;21.90;98.20;;;;;;4255693;33;20244;-67
2022/06/23 07:08:25;;;;;;;0.20;0.20;;;22.00;97.60;;;;;;4269224;33;20150;-67
2022/06/23 07:10:57;;;;;;;0.70;0.37;;;22.20;97.60;;;;;;4280018;33;20099;-67
2022/06/23 07:13:33;;;;;;;0.20;0.20;;;22.20;97.10;;;;;;4286236;33;20498;-67
2022/06/23 07:16:05;;;;;;;1.58;0.52;;;22.30;97.20;;;;;;4285686;33;20124;-67
2022/06/23 07:18:38;;;;;;;0.30;0.30;;;22.40;97.30;;;;;;4272991;33;20480;-67
2022/06/23 07:21:21;;;;;;;0.35;0.35;;;22.50;97.10;;;;;;4264838;33;20478;-67
2022/06/23 07:23:53;;;;;;;0.65;0.50;;;22.60;97.10;;;;;;4263137;33;20108;-66
2022/06/23 07:26:48;;;;;;;0.55;0.50;;;22.70;96.60;;;;;;4284599;33;20196;-66
2022/06/23 07:29:28;;;;;;;0.22;0.22;;;22.80;96.10;;;;;;4273034;33;20088;-66
2022/06/23 07:31:59;;;;;;;0.95;0.88;;;23.00;95.90;;;;;;4266125;33;20084;-67
2022/06/23 07:34:27;;;;;;;0.32;0.32;;;23.10;95.80;;;;;;4247256;33;20254;-67
2022/06/23 07:36:57;;;;;;;0.45;0.45;;;23.30;95.80;;;;;;4266632;33;20264;-66
2022/06/23 07:39:29;;;;;;;0.28;0.28;;;23.50;96.00;;;;;;4278813;33;20096;-67
2022/06/23 07:42:02;;;;;;;0.30;0.30;;;23.60;95.50;;;;;;4285038;33;20146;-67
2022/06/23 07:44:37;;;;;;;4.22;0.75;;;23.60;95.20;;;;;;4287059;33;20119;-66
2022/06/23 07:47:03;;;;;;;0.50;0.50;;;23.70;95.00;;;;;;4285422;33;20069;-67
2022/06/23 07:49:32;;;;;;;0.40;0.40;;;23.70;94.30;;;;;;4258385;33;20124;-66
2022/06/23 07:51:59;;;;;;;0.50;0.50;;;23.80;94.80;;;;;;4269006;33;20206;-67
2022/06/23 07:54:25;;;;;;;0.50;0.50;;;23.90;94.40;;;;;;4272934;33;20172;-67
2022/06/23 07:56:52;;;;;;;0.20;0.20;;;23.90;94.90;;;;;;4287332;33;20093;-67
2022/06/23 07:59:20;;;;;;;2.58;0.95;;;24.10;94.60;;;;;;4278725;33;20490;-67
2022/06/23 08:01:51;;;;;;;0.30;0.30;;;24.30;93.50;;;;;;4266582;33;20088;-66
2022/06/23 08:04:21;;;;;;;;;;;24.40;93.30;;;;;;4247535;33;20442;-67
2022/06/23 08:06:48;;;;;;;0.80;0.70;;;24.60;93.20;;;;;;4260387;33;20650;-66
2022/06/23 08:09:34;;;;;;;0.35;0.35;;;24.70;93.00;;;;;;4275803;33;20348;-67
2022/06/23 08:13:03;;;;;;;0.30;0.30;;;24.90;92.90;;;;;;4280722;33;20822;-67
2022/06/23 08:17:12;;;;;;;0.40;0.40;;;24.90;92.80;;;;;;4284197;33;20504;-67
2022/06/23 08:18:02;;;;;;;0.30;0.30;;;25.00;91.70;;;;;;4269434;33;20115;-67
2022/06/23 08:20:31;;;;;;;9.75;1.10;;;25.10;91.60;;;;;;4262278;33;20248;-67
2022/06/23 08:22:59;;;;;;;0.45;0.45;;;25.20;91.50;;;;;;4262374;33;22013;-67
2022/06/23 08:25:24;;;;;;;0.37;0.37;;;25.20;91.00;;;;;;4275683;33;20111;-67
2022/06/23 08:27:53;;;;;;;0.22;0.20;;;25.20;90.50;;;;;;4278042;33;20132;-67
2022/06/23 08:30:22;;;;;;;0.85;0.62;;;25.30;90.70;;;;;;4261764;33;20161;-67
2022/06/23 08:32:50;;;;;;;4.32;0.98;;;25.30;91.40;;;;;;4261555;33;20444;-67
2022/06/23 08:35:27;;;;;;;0.40;0.40;;;25.50;91.00;;;;;;4252786;33;20628;-68
2022/06/23 08:38:15;;;;;;;0.75;0.60;;;25.70;90.70;;;;;;4264288;33;20907;-67
2022/06/23 08:41:02;;;;;;;0.40;0.40;;;25.90;89.90;;;;;;4272591;33;20417;-68
2022/06/23 08:43:37;;;;;;;0.43;0.40;;;26.10;90.00;;;;;;4275509;33;20730;-68
2022/06/23 08:46:10;;;;;;;2.65;0.65;;;26.20;88.20;;;;;;4279119;33;20537;-68
2022/06/23 08:48:50;;;;;;;0.37;0.37;;;26.30;88.30;;;;;;4265238;33;20155;-68
2022/06/23 08:51:26;;;;;;;0.73;0.55;;;26.50;88.30;;;;;;4261738;33;20088;-68
2022/06/23 08:54:02;;;;;;;0.20;0.20;;;26.40;86.40;;;;;;4263011;33;20515;-68
2022/06/23 08:56:42;;;;;;;0.40;0.37;;;26.40;86.90;;;;;;4279333;33;20212;-68
2022/06/23 08:59:20;;;;;;;0.30;0.30;;;26.50;84.90;;;;;;4269040;33;20347;-68
2022/06/23 09:02:07;;;;;;;0.30;0.30;;;26.60;85.10;;;;;;4261091;33;20075;-68
2022/06/23 09:04:36;;;;;;;0.30;0.30;;;26.60;85.20;;;;;;4246360;33;20422;-68
2022/06/23 09:07:13;;;;;;;0.43;0.43;;;26.60;84.40;;;;;;4267583;33;20423;-68
2022/06/23 09:09:48;;;;;;;0.20;0.20;;;26.50;84.70;;;;;;4267873;33;20104;-68
2022/06/23 09:12:41;;;;;;;0.30;0.30;;;26.50;85.40;;;;;;4267768;33;20067;-69
2022/06/23 09:15:28;;;;;;;0.20;0.20;;;26.70;80.70;;;;;;4258466;33;20859;-69
2022/06/23 09:18:13;;;;;;;6.10;1.67;;;26.80;81.70;;;;;;4268317;33;20121;-68
2022/06/23 09:20:57;;;;;;;0.40;0.40;;;27.10;81.30;;;;;;4254869;33;20164;-68
2022/06/23 09:23:46;;;;;;;0.10;0.10;;;27.10;80.10;;;;;;4262343;33;20091;-69
2022/06/23 09:26:29;;;;;;;0.30;0.30;;;27.10;79.80;;;;;;4286473;33;20104;-68
2022/06/23 09:28:57;;;;;;;0.15;0.15;;;27.20;80.20;;;;;;4275068;33;20093;-68
2022/06/23 09:31:38;;;;;;;0.22;0.22;;;27.30;81.70;;;;;;4262195;33;20844;-68
2022/06/23 09:34:43;;;;;;;0.77;0.30;;;27.40;79.20;;;;;;4240285;33;20396;-68
2022/06/23 09:37:39;;;;;;;0.17;0.17;;;27.20;77.60;;;;;;4262901;33;20174;-68
2022/06/23 09:40:42;;;;;;;0.20;0.20;;;27.20;79.50;;;;;;4274412;33;20171;-67
2022/06/23 09:43:37;;;;;;;0.20;0.20;;;27.30;77.60;;;;;;4278737;33;21097;-67
2022/06/23 09:46:37;;;;;;;0.28;0.28;;;27.40;76.00;;;;;;4273208;33;20585;-67
2022/06/23 09:49:42;;;;;;;0.20;0.20;;;27.40;78.20;;;;;;4257104;33;20757;-68
2022/06/23 09:52:38;;;;;;;0.30;0.30;;;27.70;73.40;;;;;;4265690;33;20369;-67
2022/06/23 09:55:19;;;;;;;3.40;0.40;;;27.70;75.40;;;;;;4275074;33;20089;-68
2022/06/23 09:57:57;;;;;;;0.65;0.65;;;27.70;77.30;;;;;;4283177;33;20647;-68
2022/06/23 10:00:47;;;;;;;0.25;0.25;;;28.00;75.40;;;;;;4260666;33;20613;-68
2022/06/23 10:03:38;;;;;;;2.30;0.52;;;28.00;73.80;;;;;;4244065;33;20826;-67
2022/06/23 10:06:13;;;;;;;0.95;0.52;;;28.00;70.90;;;;;;4252991;33;20129;-68
2022/06/23 10:08:49;;;;;;;0.10;0.10;;;27.90;72.60;;;;;;4262732;33;20857;-68
2022/06/23 10:11:34;;;;;;;0.20;0.20;;;27.70;72.60;;;;;;4279409;33;20095;-68
2022/06/23 10:14:39;;;;;;;0.93;0.57;;;28.10;71.10;;;;;;4276146;33;20509;-68
2022/06/23 10:17:29;;;;;;;1.12;0.55;;;28.50;71.70;;;;;;4266527;33;20100;-68
2022/06/23 10:20:30;;;;;;;0.27;0.27;;;28.80;69.80;;;;;;4252618;33;20204;-68
2022/06/23 10:23:04;;;;;;;0.40;0.40;;;28.90;70.20;;;;;;4257528;33;20194;-68
2022/06/23 10:25:35;;;;;;;1.95;0.90;;;29.10;69.40;;;;;;4280951;33;20116;-68
2022/06/23 10:28:31;;;;;;;0.35;0.35;;;29.10;68.60;;;;;;4291251;33;20269;-68
2022/06/23 10:31:11;;;;;;;0.65;0.55;;;29.50;68.50;;;;;;4265148;33;20240;-68
2022/06/23 10:33:46;;;;;;;0.43;0.22;;;29.70;68.20;;;;;;4243505;33;20076;-68
2022/06/23 10:36:33;;;;;;;0.20;0.20;;;29.90;68.00;;;;;;4263352;33;20166;-68
2022/06/23 10:39:23;;;;;;;1.30;0.73;;;29.80;64.90;;;;;;4275874;33;20486;-69
2022/06/23 10:42:11;;;;;;;0.30;0.30;;;29.90;63.10;;;;;;4284215;33;20060;-68
2022/06/23 10:44:58;;;;;;;2.90;1.20;;;30.00;62.50;;;;;;4283961;33;20144;-68
2022/06/23 10:47:52;;;;;;;0.75;0.47;;;30.00;61.30;;;;;;4282778;33;20544;-68
2022/06/23 10:50:31;;;;;;;0.00;0.00;;;30.00;62.50;;;;;;4260408;33;20819;-69
2022/06/23 10:53:22;;;;;;;6.40;1.00;;;30.30;60.30;;;;;;4266244;33;20109;-68
2022/06/23 10:56:12;;;;;;;0.10;0.10;;;30.60;61.10;;;;;;4288696;33;20376;-68
2022/06/23 10:58:54;;;;;;;0.47;0.30;;;30.90;58.80;;;;;;4281149;33;20112;-68
2022/06/23 11:01:41;;;;;;;0.30;0.17;;;31.00;56.90;;;;;;4267255;33;20905;-68
2022/06/23 11:04:36;;;;;;;0.22;0.17;;;30.90;60.20;;;;;;4242471;33;20337;-68
2022/06/23 11:07:17;;;;;;;1.65;0.45;;;30.90;59.10;;;;;;4266145;33;20073;-68
2022/06/23 11:10:02;;;;;;;0.15;0.15;;;30.90;59.60;;;;;;4284619;33;20092;-68
2022/06/23 11:12:42;;;;;;;0.25;0.20;;;31.20;59.20;;;;;;4292307;33;20387;-68
2022/06/23 11:15:28;;;;;;;0.22;0.17;;;31.70;58.50;;;;;;4285906;33;20270;-68
2022/06/23 11:18:11;;;;;;;0.25;0.25;;;32.00;58.00;;;;;;4282658;33;20109;-68
2022/06/23 11:20:44;;;;;;;0.30;0.28;;;32.10;59.40;;;;;;4267486;33;20555;-68
2022/06/23 11:23:26;;;;;;;0.17;0.17;;;32.20;59.00;;;;;;4268992;33;20776;-69
2022/06/23 11:26:25;;;;;;;0.20;0.20;;;32.20;59.60;;;;;;4291242;33;20179;-68
2022/06/23 11:29:17;;;;;;;2.55;0.75;;;32.40;57.50;;;;;;4284641;33;20101;-69
2022/06/23 11:31:59;;;;;;;0.20;0.20;;;32.50;57.30;;;;;;4266402;33;20131;-69
2022/06/23 11:34:40;;;;;;;0.28;0.28;;;32.70;57.50;;;;;;4244988;33;20193;-69
2022/06/23 11:37:33;;;;;;;0.20;0.20;;;33.20;56.80;;;;;;4269618;33;20379;-69
2022/06/23 11:40:25;;;;;;;0.98;0.57;;;32.80;56.60;;;;;;4288895;33;20104;-69
2022/06/23 11:43:12;;;;;;;0.10;0.10;;;32.80;57.70;;;;;;4288161;33;20633;-69
2022/06/23 11:45:48;;;;;;;0.10;0.10;;;33.20;58.10;;;;;;4285661;33;20128;-69
2022/06/23 11:48:41;;;;;;;0.03;0.03;;;33.30;56.30;;;;;;4282592;33;20068;-69
2022/06/23 11:51:34;;;;;;;0.30;0.30;;;33.60;56.10;;;;;;4265389;33;20166;-69
2022/06/23 11:54:20;;;;;;;0.20;0.20;;;33.80;55.00;;;;;;4271828;33;20257;-69
2022/06/23 11:57:01;;;;;;;0.32;0.32;;;34.10;55.60;;;;;;4292797;33;20545;-70
2022/06/23 11:59:41;;;;;;;0.40;0.40;;;34.40;54.80;;;;;;4275656;33;20093;-69
2022/06/23 12:02:06;;;;;;;4.47;1.15;;;34.30;55.20;;;;;;4265013;33;20395;-69
2022/06/23 12:05:08;;;;;;;3.53;0.30;;;34.80;53.60;;;;;;4251481;33;20694;-69
2022/06/23 12:07:48;;;;;;;2.40;1.05;;;35.20;54.40;;;;;;4269491;33;20097;-69
2022/06/23 12:10:20;;;;;;;0.30;0.30;;;35.30;54.70;;;;;;4288728;33;21424;-69
2022/06/23 12:12:47;;;;;;;0.25;0.25;;;35.30;52.30;;;;;;4284980;33;20088;-69
2022/06/23 12:15:17;;;;;;;0.10;0.10;;;35.20;50.70;;;;;;4284428;33;20652;-69
2022/06/23 12:17:48;;;;;;;0.25;0.25;;;35.50;51.90;;;;;;4281791;33;20486;-69
2022/06/23 12:20:23;;;;;;;0.15;0.15;;;35.30;51.40;;;;;;4266118;33;20365;-69
2022/06/23 12:22:58;;;;;;;2.20;0.30;;;35.60;51.10;;;;;;4266535;33;20255;-69
2022/06/23 12:25:39;;;;;;;0.10;0.10;;;35.50;50.50;;;;;;4285406;33;20069;-69
2022/06/23 12:28:21;;;;;;;0.20;0.20;;;35.90;50.20;;;;;;4288903;33;20191;-69
2022/06/23 12:30:59;;;;;;;0.40;0.25;;;36.00;50.80;;;;;;4264475;33;20514;-69
2022/06/23 12:33:34;;;;;;;0.10;0.10;;;35.90;50.90;;;;;;4245583;33;20276;-69
2022/06/23 12:36:08;;;;;;;0.52;0.35;;;35.90;50.20;;;;;;4262420;33;20475;-68
2022/06/23 12:38:38;;;;;;;0.35;0.35;;;36.10;50.10;;;;;;4275255;33;20569;-68
2022/06/23 12:41:19;;;;;;;6.35;0.45;;;36.30;50.00;;;;;;4286413;33;20088;-69
2022/06/23 12:43:51;;;;;;;0.20;0.20;;;36.40;48.90;;;;;;4284104;33;20455;-68
2022/06/23 12:46:44;;;;;;;0.20;0.20;;;36.60;49.10;;;;;;4285987;33;20417;-68
2022/06/23 12:49:24;;;;;;;0.47;0.40;;;36.60;49.50;;;;;;4268680;33;20588;-68
2022/06/23 12:52:10;;;;;;;0.20;0.20;;;36.50;48.40;;;;;;4269336;33;20104;-68
2022/06/23 12:54:46;;;;;;;0.13;0.13;;;37.00;47.50;;;;;;4280448;33;20104;-68
2022/06/23 12:57:41;;;;;;;0.22;0.22;;;37.30;47.40;;;;;;4293414;33;20083;-68
2022/06/23 13:00:18;;;;;;;0.10;0.10;;;37.50;47.70;;;;;;4265192;33;20099;-68
2022/06/23 13:02:52;;;;;;;0.10;0.10;;;37.00;46.50;;;;;;4258677;33;20770;-68
2022/06/23 13:05:29;;;;;;;0.75;0.57;;;37.30;47.10;;;;;;4253310;33;20668;-68
2022/06/23 13:08:03;;;;;;;1.05;0.68;;;37.40;46.10;;;;;;4270597;33;20099;-69
2022/06/23 13:10:37;;;;;;;0.20;0.20;;;37.60;46.00;;;;;;4288012;33;20416;-68
2022/06/23 13:13:25;;;;;;;0.10;0.10;;;38.20;45.00;;;;;;4286587;33;20100;-69
2022/06/23 13:15:59;;;;;;;0.20;0.20;;;38.20;46.20;;;;;;4286835;33;20462;-68
2022/06/23 13:18:38;;;;;;;0.25;0.25;;;37.50;47.00;;;;;;4278842;33;20203;-68
2022/06/23 13:21:26;;;;;;;0.68;0.40;;;37.20;45.90;;;;;;4266377;33;20596;-68
2022/06/23 13:23:58;;;;;;;0.30;0.30;;;37.70;45.70;;;;;;4268964;33;20121;-68
2022/06/23 13:26:29;;;;;;;0.10;0.10;;;37.50;45.10;;;;;;4288487;33;20060;-68
2022/06/23 13:29:18;;;;;;;0.20;0.20;;;38.00;44.40;;;;;;4280732;33;20076;-68
2022/06/23 13:32:09;;;;;;;2.58;0.93;;;38.10;44.30;;;;;;4265352;33;20105;-68
2022/06/23 13:34:48;;;;;;;0.20;0.20;;;37.70;45.90;;;;;;4243817;33;20940;-68
2022/06/23 13:37:21;;;;;;;0.98;0.45;;;37.80;45.30;;;;;;4269073;33;20076;-68
2022/06/23 13:40:27;;;;;;;0.10;0.10;;;38.60;44.80;;;;;;4286958;33;20063;-68
2022/06/23 13:43:06;;;;;;;0.10;0.10;;;38.40;45.80;;;;;;4288396;33;20072;-68
2022/06/23 13:45:37;;;;;;;0.40;0.40;;;38.30;45.20;;;;;;4287390;33;20161;-68
2022/06/23 13:48:11;;;;;;;0.57;0.55;;;38.80;44.50;;;;;;4277896;33;20267;-68
2022/06/23 13:50:48;;;;;;;0.28;0.28;;;38.80;44.30;;;;;;4263711;33;20175;-68